createdAt,value
2018-08-24T00:00:04.852Z,99945.82
2018-08-24T00:02:32.876Z,99936.79
2018-08-24T00:05:00.891Z,99933.08
2018-08-24T00:07:29.051Z,99930.00
2018-08-24T00:09:56.964Z,99920.66
2018-08-24T00:12:25.052Z,99917.89
2018-08-24T00:14:53.087Z,99920.84
2018-08-24T00:17:26.678Z,99916.20
2018-08-24T00:19:54.670Z,99910.23
2018-08-24T00:22:22.672Z,99908.28
2018-08-24T00:24:50.701Z,99902.80
2018-08-24T00:27:18.792Z,99898.02
2018-08-24T00:29:46.792Z,99896.83
2018-08-24T00:32:14.789Z,99896.38
2018-08-24T00:34:42.790Z,99897.80
2018-08-24T00:37:10.845Z,99897.89
2018-08-24T00:39:42.248Z,99896.05
2018-08-24T00:42:10.378Z,99893.84
2018-08-24T00:44:38.420Z,99892.65
2018-08-24T00:47:06.464Z,99897.38
2018-08-24T00:49:34.464Z,99897.55
2018-08-24T00:52:02.469Z,99899.84
2018-08-24T00:54:30.484Z,99893.45
2018-08-24T00:56:58.484Z,99896.50
2018-08-24T00:59:26.513Z,99893.52
2018-08-24T01:01:54.513Z,99894.66
2018-08-24T01:04:27.906Z,99892.16
2018-08-24T01:06:55.906Z,99896.80
2018-08-24T01:09:23.936Z,99892.18
2018-08-24T01:11:57.385Z,99890.45
2018-08-24T01:14:25.380Z,99896.85
2018-08-24T01:16:58.800Z,99893.52
2018-08-24T01:19:26.830Z,99898.28
2018-08-24T01:21:54.834Z,99895.23
2018-08-24T01:24:27.014Z,99902.62
2018-08-24T01:27:00.544Z,99890.01
2018-08-24T01:29:28.547Z,99889.45
2018-08-24T01:31:56.537Z,99881.52
2018-08-24T01:34:24.552Z,99882.48
2018-08-24T01:36:52.648Z,99886.73
2018-08-24T01:39:20.672Z,99878.58
2018-08-24T01:41:49.001Z,99876.88
2018-08-24T01:44:17.169Z,99869.09
2018-08-24T01:46:45.240Z,99871.53
2018-08-24T01:49:13.266Z,99868.33
2018-08-24T01:51:48.070Z,99874.58
2018-08-24T01:54:16.069Z,99874.68
2018-08-24T01:56:44.128Z,99871.39
2018-08-24T01:59:12.837Z,99870.95
2018-08-24T02:01:40.735Z,99869.53
2018-08-24T02:04:08.757Z,99866.09
2018-08-24T02:06:36.756Z,99870.66
2018-08-24T02:09:08.417Z,99871.16
2018-08-24T02:11:36.460Z,99873.55
2018-08-24T02:14:09.856Z,99866.59
2018-08-24T02:16:38.796Z,99875.05
2018-08-24T02:20:11.936Z,99877.20
2018-08-24T02:22:39.927Z,99875.27
2018-08-24T02:25:07.928Z,99875.02
2018-08-24T02:27:35.949Z,99871.84
2018-08-24T02:30:04.597Z,99877.91
2018-08-24T02:32:32.593Z,99875.89
2018-08-24T02:35:00.610Z,99881.94
2018-08-24T02:37:29.601Z,99877.61
2018-08-24T02:39:57.592Z,99873.27
2018-08-24T02:42:25.610Z,99869.96
2018-08-24T02:44:53.651Z,99866.53
2018-08-24T02:47:21.613Z,99865.80
2018-08-24T02:49:49.622Z,99866.86
2018-08-24T02:52:17.616Z,99869.46
2018-08-24T02:54:45.620Z,99863.25
2018-08-24T02:57:13.613Z,99864.45
2018-08-24T02:59:41.618Z,99852.45
2018-08-24T03:02:09.613Z,99862.35
2018-08-24T03:04:37.613Z,99861.84
2018-08-24T03:07:05.621Z,99858.49
2018-08-24T03:09:33.715Z,99860.95
2018-08-24T03:12:01.729Z,99865.13
2018-08-24T03:14:29.733Z,99868.53
2018-08-24T03:17:03.268Z,99871.10
2018-08-24T03:19:31.321Z,99876.98
2018-08-24T03:21:59.352Z,99879.48
2018-08-24T03:24:27.458Z,99875.41
2018-08-24T03:26:55.445Z,99877.58
2018-08-24T03:29:23.488Z,99876.08
2018-08-24T03:31:51.474Z,99870.63
2018-08-24T03:34:19.472Z,99875.66
2018-08-24T03:36:47.475Z,99872.77
2018-08-24T03:39:15.497Z,99884.57
2018-08-24T03:41:43.492Z,99891.52
2018-08-24T03:44:11.485Z,99893.23
2018-08-24T03:46:39.493Z,99897.20
2018-08-24T03:49:07.478Z,99896.48
2018-08-24T03:51:35.463Z,99899.35
2018-08-24T03:54:07.659Z,99894.19
2018-08-24T03:56:35.653Z,99890.80
2018-08-24T03:59:03.641Z,99889.55
2018-08-24T04:01:31.636Z,99899.59
2018-08-24T04:03:59.625Z,99902.92
2018-08-24T04:06:27.638Z,99899.59
2018-08-24T04:08:55.634Z,99908.30
2018-08-24T04:11:23.697Z,99907.28
2018-08-24T04:13:51.676Z,99908.77
2018-08-24T04:16:19.885Z,99915.78
2018-08-24T04:18:47.885Z,99910.28
2018-08-24T04:21:15.886Z,99911.66
2018-08-24T04:23:44.049Z,99919.99
2018-08-24T04:26:12.187Z,99926.66
2018-08-24T04:28:40.044Z,99927.44
2018-08-24T04:31:08.053Z,99929.45
2018-08-24T04:33:36.097Z,99930.25
2018-08-24T04:36:04.109Z,99924.96
2018-08-24T04:38:32.078Z,99933.84
2018-08-24T04:41:00.103Z,99936.62
2018-08-24T04:43:28.087Z,99935.98
2018-08-24T04:45:56.089Z,99943.83
2018-08-24T04:48:24.070Z,99942.34
2018-08-24T04:50:52.060Z,99935.19
2018-08-24T04:53:20.089Z,99941.84
2018-08-24T04:55:48.172Z,99943.69
2018-08-24T04:58:16.186Z,99944.01
2018-08-24T05:00:44.149Z,99951.38
2018-08-24T05:03:12.285Z,99951.55
2018-08-24T05:05:40.398Z,99956.45
2018-08-24T05:08:08.318Z,99965.56
2018-08-24T05:10:36.350Z,99965.03
2018-08-24T05:13:04.349Z,99966.18
2018-08-24T05:15:32.744Z,99966.38
2018-08-24T05:18:00.724Z,99972.03
2018-08-24T05:20:28.717Z,99971.23
2018-08-24T05:22:56.726Z,99963.16
2018-08-24T05:25:24.697Z,99966.17
2018-08-24T05:27:52.776Z,99971.58
2018-08-24T05:30:20.769Z,99975.14
2018-08-24T05:32:48.950Z,99973.44
2018-08-24T05:35:17.930Z,99971.66
2018-08-24T05:37:45.970Z,99977.13
2018-08-24T05:40:13.977Z,99976.11
2018-08-24T05:42:42.229Z,99974.77
2018-08-24T05:45:10.301Z,99980.33
2018-08-24T05:47:38.424Z,99980.80
2018-08-24T05:50:06.968Z,99976.52
2018-08-24T05:52:34.985Z,99985.55
2018-08-24T05:55:03.025Z,99985.73
2018-08-24T05:57:31.096Z,99985.22
2018-08-24T05:59:59.117Z,99989.80
2018-08-24T06:02:27.172Z,99987.75
2018-08-24T06:04:55.405Z,99988.52
2018-08-24T06:07:24.488Z,99988.42
2018-08-24T06:09:52.477Z,99991.54
2018-08-24T06:12:20.484Z,99986.77
2018-08-24T06:14:48.506Z,99992.93
2018-08-24T06:17:21.942Z,99994.37
2018-08-24T06:19:50.005Z,99992.70
2018-08-24T06:22:18.121Z,100000.76
2018-08-24T06:24:46.100Z,99995.13
2018-08-24T06:27:14.089Z,99993.95
2018-08-24T06:29:42.091Z,100001.76
2018-08-24T06:32:10.081Z,99996.15
2018-08-24T06:34:38.120Z,99993.70
2018-08-24T06:37:06.299Z,99997.66
2018-08-24T06:39:34.217Z,99998.66
2018-08-24T06:42:02.348Z,99998.17
2018-08-24T06:44:30.289Z,99998.14
2018-08-24T06:46:58.296Z,99996.79
2018-08-24T06:49:26.289Z,99992.48
2018-08-24T06:51:54.292Z,99998.97
2018-08-24T06:54:22.292Z,100004.84
2018-08-24T06:56:50.256Z,100002.39
2018-08-24T06:59:18.285Z,100009.73
2018-08-24T07:01:46.304Z,100006.06
2018-08-24T07:04:14.307Z,100011.16
2018-08-24T07:06:42.652Z,100004.39
2018-08-24T07:09:10.669Z,100011.01
2018-08-24T07:11:38.777Z,100013.03
2018-08-24T07:14:06.780Z,100007.05
2018-08-24T07:16:34.758Z,100007.95
2018-08-24T07:19:02.752Z,100010.44
2018-08-24T07:21:30.760Z,100015.98
2018-08-24T07:23:58.769Z,100015.50
2018-08-24T07:26:26.786Z,100012.41
2018-08-24T07:28:54.760Z,100014.52
2018-08-24T07:31:22.744Z,100008.97
2018-08-24T07:33:50.759Z,100017.20
2018-08-24T07:36:18.768Z,100027.77
2018-08-24T07:38:46.779Z,100035.05
2018-08-24T07:41:14.808Z,100030.05
2018-08-24T07:43:42.857Z,100028.93
2018-08-24T07:46:10.861Z,100027.90
2018-08-24T07:48:38.853Z,100019.39
2018-08-24T07:51:06.849Z,100021.80
2018-08-24T07:53:34.869Z,100017.04
2018-08-24T07:56:02.921Z,100021.48
2018-08-24T07:58:30.913Z,100028.23
2018-08-24T08:00:58.902Z,100027.84
2018-08-24T08:03:26.917Z,100034.59
2018-08-24T08:05:54.929Z,100031.13
2018-08-24T08:08:22.989Z,100033.16
2018-08-24T08:10:51.013Z,100040.31
2018-08-24T08:13:19.025Z,100045.84
2018-08-24T08:15:47.053Z,100048.16
2018-08-24T08:18:15.174Z,100050.12
2018-08-24T08:20:43.896Z,100051.06
2018-08-24T08:23:11.921Z,100040.34
2018-08-24T08:25:39.962Z,100031.06
2018-08-24T08:28:07.976Z,100032.74
2018-08-24T08:30:36.186Z,100032.19
2018-08-24T08:33:04.245Z,100040.73
2018-08-24T08:35:32.465Z,100035.59
2018-08-24T08:38:00.504Z,100039.12
2018-08-24T08:40:28.532Z,100045.34
2018-08-24T08:42:56.594Z,100041.64
2018-08-24T08:45:24.702Z,100044.70
2018-08-24T08:47:52.768Z,100045.17
2018-08-24T08:50:20.781Z,100039.55
2018-08-24T08:52:48.829Z,100043.83
2018-08-24T08:55:16.869Z,100053.28
2018-08-24T08:57:45.044Z,100055.32
2018-08-24T09:00:13.045Z,100052.20
2018-08-24T09:02:41.044Z,100058.84
2018-08-24T09:05:09.061Z,100053.75
2018-08-24T09:07:37.052Z,100046.58
2018-08-24T09:10:05.070Z,100051.88
2018-08-24T09:12:33.055Z,100047.48
2018-08-24T09:15:01.109Z,100050.35
2018-08-24T09:17:34.601Z,100046.20
2018-08-24T09:20:07.933Z,100049.12
2018-08-24T09:22:41.676Z,100053.34
2018-08-24T09:25:15.033Z,100047.75
2018-08-24T09:27:52.220Z,100047.03
2018-08-24T09:30:21.088Z,100049.13
2018-08-24T09:32:49.161Z,100046.64
2018-08-24T09:35:17.442Z,100042.66
2018-08-24T09:37:45.516Z,100040.48
2018-08-24T09:40:13.569Z,100040.48
2018-08-24T09:42:41.597Z,100045.11
2018-08-24T09:45:09.611Z,100060.73
2018-08-24T09:47:43.037Z,100058.62
2018-08-24T09:50:16.397Z,100061.16
2018-08-24T09:52:48.820Z,100055.30
2018-08-24T09:55:17.068Z,100048.25
2018-08-24T09:57:45.144Z,100046.59
2018-08-24T10:00:13.161Z,100043.91
2018-08-24T10:02:44.137Z,100048.58
2018-08-24T10:05:17.697Z,100051.13
2018-08-24T10:07:49.805Z,100057.95
2018-08-24T10:10:17.858Z,100061.14
2018-08-24T10:12:45.849Z,100071.54
2018-08-24T10:15:13.878Z,100076.52
2018-08-24T10:17:41.953Z,100069.47
2018-08-24T10:20:10.012Z,100064.13
2018-08-24T10:22:38.024Z,100069.69
2018-08-24T10:25:06.115Z,100074.02
2018-08-24T10:27:34.242Z,100073.89
2018-08-24T10:30:02.252Z,100078.56
2018-08-24T10:32:30.254Z,100073.39
2018-08-24T10:34:58.244Z,100081.08
2018-08-24T10:37:26.329Z,100081.74
2018-08-24T10:39:54.358Z,100080.03
2018-08-24T10:42:22.388Z,100083.90
2018-08-24T10:44:50.423Z,100087.80
2018-08-24T10:47:18.552Z,100077.58
2018-08-24T10:49:46.485Z,100075.91
2018-08-24T10:52:14.628Z,100079.27
2018-08-24T10:54:42.959Z,100082.94
2018-08-24T10:57:11.072Z,100069.45
2018-08-24T10:59:39.068Z,100074.22
2018-08-24T11:02:07.476Z,100074.83
2018-08-24T11:04:35.352Z,100078.16
2018-08-24T11:07:03.638Z,100076.01
2018-08-24T11:09:31.658Z,100072.39
2018-08-24T11:11:59.656Z,100069.16
2018-08-24T11:14:27.662Z,100070.17
2018-08-24T11:16:55.745Z,100061.82
2018-08-24T11:19:23.713Z,100069.44
2018-08-24T11:21:51.740Z,100076.47
2018-08-24T11:24:19.848Z,100067.25
2018-08-24T11:26:47.898Z,100068.13
2018-08-24T11:29:15.898Z,100066.69
2018-08-24T11:31:44.877Z,100070.45
2018-08-24T11:34:13.324Z,100068.11
2018-08-24T11:36:41.593Z,100062.20
2018-08-24T11:39:10.018Z,100062.72
2018-08-24T11:41:38.508Z,100060.67
2018-08-24T11:44:06.656Z,100064.41
2018-08-24T11:46:35.201Z,100061.59
2018-08-24T11:49:03.232Z,100075.48
2018-08-24T11:51:35.449Z,100072.02
2018-08-24T11:54:03.467Z,100067.84
2018-08-24T11:56:31.461Z,100067.02
2018-08-24T11:58:59.496Z,100074.83
2018-08-24T12:01:27.554Z,100083.06
2018-08-24T12:03:55.797Z,100080.39
2018-08-24T12:06:23.977Z,100081.89
2018-08-24T12:08:52.018Z,100083.91
2018-08-24T12:11:20.049Z,100071.03
2018-08-24T12:13:48.106Z,100080.77
2018-08-24T12:16:16.426Z,100085.91
2018-08-24T12:18:46.468Z,100087.29
2018-08-24T12:21:14.518Z,100082.67
2018-08-24T12:23:42.766Z,100075.90
2018-08-24T12:26:11.282Z,100076.92
2018-08-24T12:28:39.447Z,100083.16
2018-08-24T12:31:07.756Z,100087.19
2018-08-24T12:33:35.765Z,100092.84
2018-08-24T12:36:04.821Z,100086.12
2018-08-24T12:38:32.833Z,100078.56
2018-08-24T12:41:00.985Z,100075.86
2018-08-24T12:43:29.017Z,100079.20
2018-08-24T12:45:56.993Z,100068.94
2018-08-24T12:48:25.025Z,100072.69
2018-08-24T12:50:53.032Z,100074.02
2018-08-24T12:53:21.045Z,100092.75
2018-08-24T12:55:49.057Z,100079.55
2018-08-24T12:58:17.091Z,100076.57
2018-08-24T13:00:45.106Z,100078.22
2018-08-24T13:03:13.249Z,100071.51
2018-08-24T13:05:41.497Z,100078.48
2018-08-24T13:08:09.753Z,100073.61
2018-08-24T13:10:38.017Z,100070.38
2018-08-24T13:13:06.116Z,100075.22
2018-08-24T13:15:34.179Z,100086.05
2018-08-24T13:18:02.300Z,100084.28
2018-08-24T13:20:30.284Z,100077.74
2018-08-24T13:22:58.389Z,100089.42
2018-08-24T13:25:26.416Z,100080.56
2018-08-24T13:27:54.425Z,100086.97
2018-08-24T13:30:22.426Z,100077.56
2018-08-24T13:32:50.484Z,100081.64
2018-08-24T13:35:25.190Z,100085.84
2018-08-24T13:37:53.624Z,100091.60
2018-08-24T13:40:21.988Z,100091.02
2018-08-24T13:42:50.025Z,100099.33
2018-08-24T13:45:18.029Z,100101.00
2018-08-24T13:47:47.064Z,100100.49
2018-08-24T13:50:15.071Z,100108.97
2018-08-24T13:52:43.133Z,100114.55
2018-08-24T13:55:11.154Z,100101.69
2018-08-24T13:57:39.146Z,100101.70
2018-08-24T14:00:07.553Z,100101.11
2018-08-24T14:02:35.654Z,100094.64
2018-08-24T14:05:03.716Z,100096.70
2018-08-24T14:07:31.788Z,100097.86
2018-08-24T14:09:59.797Z,100118.66
2018-08-24T14:12:27.804Z,100115.93
2018-08-24T14:14:55.834Z,100120.53
2018-08-24T14:17:23.837Z,100115.96
2018-08-24T14:19:51.860Z,100117.76
2018-08-24T14:22:19.848Z,100116.35
2018-08-24T14:24:47.853Z,100113.14
2018-08-24T14:27:15.885Z,100101.57
2018-08-24T14:29:44.232Z,100101.98
2018-08-24T14:32:12.212Z,100107.38
2018-08-24T14:34:40.628Z,100102.92
2018-08-24T14:37:08.693Z,100100.37
2018-08-24T14:39:36.763Z,100093.16
2018-08-24T14:42:04.829Z,100086.04
2018-08-24T14:44:32.972Z,100090.80
2018-08-24T14:47:01.009Z,100084.69
2018-08-24T14:49:29.038Z,100087.64
2018-08-24T14:51:57.040Z,100081.48
2018-08-24T14:54:25.084Z,100087.22
2018-08-24T14:56:53.102Z,100088.08
2018-08-24T14:59:21.125Z,100089.44
2018-08-24T15:01:49.112Z,100083.83
2018-08-24T15:04:17.148Z,100080.13
2018-08-24T15:06:45.125Z,100085.59
2018-08-24T15:09:13.166Z,100085.78
2018-08-24T15:11:41.172Z,100089.73
2018-08-24T15:14:09.738Z,100085.02
2018-08-24T15:16:37.761Z,100084.59
2018-08-24T15:19:05.937Z,100086.50
2018-08-24T15:21:33.924Z,100090.78
2018-08-24T15:24:01.953Z,100081.73
2018-08-24T15:26:29.948Z,100085.29
2018-08-24T15:28:58.013Z,100087.94
2018-08-24T15:31:25.981Z,100081.77
2018-08-24T15:33:54.005Z,100089.19
2018-08-24T15:36:21.996Z,100082.42
2018-08-24T15:38:50.029Z,100084.66
2018-08-24T15:41:18.047Z,100080.66
2018-08-24T15:43:46.075Z,100082.56
2018-08-24T15:46:14.143Z,100085.77
2018-08-24T15:48:42.081Z,100084.42
2018-08-24T15:51:10.105Z,100089.42
2018-08-24T15:53:38.102Z,100088.48
2018-08-24T15:56:06.130Z,100086.48
2018-08-24T15:58:34.221Z,100086.59
2018-08-24T16:01:02.249Z,100098.33
2018-08-24T16:03:30.281Z,100087.45
2018-08-24T16:05:58.292Z,100083.38
2018-08-24T16:08:26.343Z,100084.36
2018-08-24T16:10:54.356Z,100085.10
2018-08-24T16:13:22.364Z,100089.48
2018-08-24T16:15:50.413Z,100092.86
2018-08-24T16:18:23.005Z,100103.16
2018-08-24T16:20:51.291Z,100104.70
2018-08-24T16:23:19.325Z,100090.48
2018-08-24T16:25:47.634Z,100099.69
2018-08-24T16:28:15.640Z,100098.61
2018-08-24T16:30:43.796Z,100099.03
2018-08-24T16:33:11.827Z,100102.86
2018-08-24T16:35:39.857Z,100101.45
2018-08-24T16:38:07.850Z,100095.12
2018-08-24T16:40:35.968Z,100102.71
2018-08-24T16:43:03.980Z,100102.47
2018-08-24T16:45:31.985Z,100097.63
2018-08-24T16:48:00.017Z,100095.15
2018-08-24T16:50:28.074Z,100102.91
2018-08-24T16:52:56.058Z,100103.91
2018-08-24T16:55:24.055Z,100097.02
2018-08-24T16:57:52.804Z,100103.94
2018-08-24T17:00:20.819Z,100096.05
2018-08-24T17:02:48.800Z,100093.72
2018-08-24T17:05:16.883Z,100093.91
2018-08-24T17:07:45.952Z,100099.79
2018-08-24T17:10:13.964Z,100103.48
2018-08-24T17:12:42.024Z,100101.50
2018-08-24T17:15:09.989Z,100099.70
2018-08-24T17:17:37.981Z,100095.66
2018-08-24T17:20:06.197Z,100105.84
2018-08-24T17:22:34.225Z,100099.15
2018-08-24T17:25:02.274Z,100100.81
2018-08-24T17:27:30.269Z,100105.98
2018-08-24T17:29:58.258Z,100101.83
2018-08-24T17:32:26.292Z,100111.89
2018-08-24T17:34:54.286Z,100116.58
2018-08-24T17:37:22.397Z,100116.05
2018-08-24T17:39:50.456Z,100122.56
2018-08-24T17:42:18.472Z,100123.28
2018-08-24T17:44:46.477Z,100127.29
2018-08-24T17:47:14.492Z,100121.28
2018-08-24T17:49:42.481Z,100125.25
2018-08-24T17:52:10.808Z,100127.29
2018-08-24T17:54:38.807Z,100127.30
2018-08-24T17:57:06.828Z,100125.30
2018-08-24T17:59:34.838Z,100126.61
2018-08-24T18:02:03.081Z,100131.45
2018-08-24T18:04:31.101Z,100130.97
2018-08-24T18:06:59.129Z,100134.34
2018-08-24T18:09:27.118Z,100134.98
2018-08-24T18:11:55.138Z,100137.69
2018-08-24T18:14:23.130Z,100133.18
2018-08-24T18:16:51.645Z,100140.70
2018-08-24T18:19:19.669Z,100131.98
2018-08-24T18:21:47.801Z,100135.31
2018-08-24T18:24:15.821Z,100137.98
2018-08-24T18:26:43.820Z,100141.07
2018-08-24T18:29:11.816Z,100141.55
2018-08-24T18:31:39.918Z,100147.86
2018-08-24T18:34:07.906Z,100141.27
2018-08-24T18:36:36.074Z,100139.77
2018-08-24T18:39:06.290Z,100144.70
2018-08-24T18:41:34.388Z,100146.58
2018-08-24T18:44:02.377Z,100156.73
2018-08-24T18:46:30.375Z,100153.22
2018-08-24T18:48:58.364Z,100152.62
2018-08-24T18:51:26.361Z,100153.67
2018-08-24T18:53:54.360Z,100158.52
2018-08-24T18:56:22.391Z,100154.39
2018-08-24T18:58:50.574Z,100152.37
2018-08-24T19:01:18.821Z,100152.26
2018-08-24T19:03:47.825Z,100159.60
2018-08-24T19:06:15.838Z,100158.22
2018-08-24T19:08:43.873Z,100158.66
2018-08-24T19:11:17.366Z,100156.30
2018-08-24T19:13:45.460Z,100161.08
2018-08-24T19:16:13.431Z,100163.11
2018-08-24T19:18:46.959Z,100164.08
2018-08-24T19:21:20.356Z,100169.86
2018-08-24T19:23:48.661Z,100174.38
2018-08-24T19:26:16.713Z,100177.64
2018-08-24T19:28:50.081Z,100177.20
2018-08-24T19:31:18.124Z,100178.18
2018-08-24T19:33:46.173Z,100175.72
2018-08-24T19:36:14.164Z,100182.73
2018-08-24T19:38:42.185Z,100181.44
2018-08-24T19:42:18.277Z,100186.42
2018-08-24T19:44:46.329Z,100182.73
2018-08-24T19:47:19.761Z,100186.92
2018-08-24T19:49:47.761Z,100182.58
2018-08-24T19:52:15.784Z,100179.69
2018-08-24T19:54:43.824Z,100173.92
2018-08-24T19:57:17.341Z,100177.65
2018-08-24T19:59:45.337Z,100180.13
2018-08-24T20:02:13.391Z,100176.77
2018-08-24T20:04:41.418Z,100186.56
2018-08-24T20:07:14.980Z,100188.02
2018-08-24T20:09:48.665Z,100189.30
2018-08-24T20:12:16.681Z,100190.07
2018-08-24T20:14:50.180Z,100182.87
2018-08-24T20:17:23.736Z,100188.47
2018-08-24T20:19:51.729Z,100183.46
2018-08-24T20:22:19.746Z,100187.00
2018-08-24T20:24:47.733Z,100185.23
2018-08-24T20:27:15.754Z,100186.19
2018-08-24T20:29:43.796Z,100188.61
2018-08-24T20:32:11.781Z,100188.20
2018-08-24T20:34:39.773Z,100189.42
2018-08-24T20:37:07.781Z,100191.64
2018-08-24T20:39:35.772Z,100192.54
2018-08-24T20:42:03.796Z,100195.14
2018-08-24T20:44:31.801Z,100190.71
2018-08-24T20:46:59.793Z,100199.80
2018-08-24T20:49:27.782Z,100189.36
2018-08-24T20:51:55.781Z,100187.50
2018-08-24T20:54:23.789Z,100191.01
2018-08-24T20:56:51.837Z,100192.36
2018-08-24T20:59:19.836Z,100190.12
2018-08-24T21:01:47.876Z,100190.76
2018-08-24T21:04:16.008Z,100194.70
2018-08-24T21:06:43.974Z,100192.36
2018-08-24T21:09:18.722Z,100192.23
2018-08-24T21:11:46.741Z,100191.15
2018-08-24T21:14:14.797Z,100186.76
2018-08-24T21:16:42.874Z,100188.85
2018-08-24T21:19:10.820Z,100186.61
2018-08-24T21:21:38.828Z,100187.95
2018-08-24T21:24:07.407Z,100180.52
2018-08-24T21:26:35.566Z,100190.25
2018-08-24T21:29:03.655Z,100183.13
2018-08-24T21:31:31.592Z,100184.66
2018-08-24T21:33:59.664Z,100182.24
2018-08-24T21:36:27.686Z,100176.38
2018-08-24T21:38:55.792Z,100184.46
2018-08-24T21:41:23.824Z,100174.55
2018-08-24T21:43:51.876Z,100172.06
2018-08-24T21:46:19.921Z,100168.39
2018-08-24T21:48:48.149Z,100169.72
2018-08-24T21:51:17.190Z,100170.42
2018-08-24T21:53:45.261Z,100167.03
2018-08-24T21:56:13.357Z,100170.11
2018-08-24T21:58:41.579Z,100167.75
2018-08-24T22:01:09.565Z,100174.61
2018-08-24T22:03:37.546Z,100168.95
2018-08-24T22:06:05.616Z,100166.64
2018-08-24T22:08:33.653Z,100160.03
2018-08-24T22:11:01.719Z,100165.70
2018-08-24T22:13:29.705Z,100161.30
2018-08-24T22:15:57.857Z,100155.02
2018-08-24T22:18:25.881Z,100154.80
2018-08-24T22:20:53.994Z,100145.15
2018-08-24T22:23:22.220Z,100144.41
2018-08-24T22:25:50.277Z,100144.31
2018-08-24T22:28:18.290Z,100145.84
2018-08-24T22:30:46.267Z,100139.87
2018-08-24T22:33:14.240Z,100140.25
2018-08-24T22:35:42.281Z,100135.92
2018-08-24T22:38:10.277Z,100143.62
2018-08-24T22:40:38.390Z,100144.40
2018-08-24T22:43:10.582Z,100145.20
2018-08-24T22:45:38.652Z,100142.90
2018-08-24T22:48:06.633Z,100144.09
2018-08-24T22:50:34.693Z,100137.87
2018-08-24T22:53:02.681Z,100141.41
2018-08-24T22:55:30.694Z,100138.93
2018-08-24T22:57:59.549Z,100137.95
2018-08-24T23:00:27.546Z,100136.89
2018-08-24T23:02:55.549Z,100133.33
2018-08-24T23:05:23.662Z,100128.42
2018-08-24T23:07:51.734Z,100126.55
2018-08-24T23:10:19.779Z,100116.95
2018-08-24T23:12:47.821Z,100118.09
2018-08-24T23:15:15.832Z,100113.40
2018-08-24T23:17:43.856Z,100113.97
2018-08-24T23:20:11.857Z,100118.56
2018-08-24T23:22:39.853Z,100112.44
2018-08-24T23:25:07.968Z,100112.66
2018-08-24T23:27:36.008Z,100112.31
2018-08-24T23:30:04.455Z,100107.25
2018-08-24T23:32:33.000Z,100100.47
2018-08-24T23:35:00.984Z,100101.76
2018-08-24T23:37:29.205Z,100097.27
2018-08-24T23:39:57.188Z,100098.73
2018-08-24T23:42:26.225Z,100101.86
2018-08-24T23:44:54.301Z,100099.49
2018-08-24T23:47:22.344Z,100095.42
2018-08-24T23:49:50.332Z,100088.77
2018-08-24T23:52:18.433Z,100088.42
2018-08-24T23:54:46.525Z,100088.97
2018-08-24T23:57:14.545Z,100092.64
2018-08-24T23:59:42.568Z,100092.14
